createdAt,value
2023-03-17T00:02:45.887Z,101380.50
2023-03-17T00:05:38.740Z,101380.78
2023-03-17T00:08:33.687Z,101379.69
2023-03-17T00:11:18.091Z,101389.69
2023-03-17T00:14:01.689Z,101378.31
2023-03-17T00:16:52.027Z,101380.25
2023-03-17T00:19:36.410Z,101382.41
2023-03-17T00:22:22.264Z,101383.47
2023-03-17T00:25:27.271Z,101370.50
2023-03-17T00:28:22.197Z,101366.69
2023-03-17T00:31:20.960Z,101354.03
2023-03-17T00:34:04.707Z,101351.88
2023-03-17T00:36:51.136Z,101356.72
2023-03-17T00:39:34.674Z,101351.59
2023-03-17T00:42:18.147Z,101354.03
2023-03-17T00:45:02.567Z,101340.50
2023-03-17T00:47:46.507Z,101329.72
2023-03-17T00:50:30.258Z,101324.84
2023-03-17T00:53:18.691Z,101324.56
2023-03-17T00:56:02.849Z,101322.44
2023-03-17T00:58:48.396Z,101308.94
2023-03-17T01:01:32.499Z,101306.78
2023-03-17T01:04:16.552Z,101297.31
2023-03-17T01:07:00.296Z,101295.97
2023-03-17T01:09:44.050Z,101292.72
2023-03-17T01:12:27.743Z,101301.09
2023-03-17T01:15:14.017Z,101302.19
2023-03-17T01:17:59.972Z,101302.16
2023-03-17T01:20:44.440Z,101296.53
2023-03-17T01:23:27.965Z,101294.63
2023-03-17T01:26:11.828Z,101287.06
2023-03-17T01:28:55.349Z,101288.94
2023-03-17T01:31:39.366Z,101282.19
2023-03-17T01:34:23.258Z,101295.69
2023-03-17T01:37:07.031Z,101286.25
2023-03-17T01:39:51.562Z,101278.69
2023-03-17T01:42:36.865Z,101276.00
2023-03-17T01:46:16.579Z,101274.38
2023-03-17T01:49:15.639Z,101267.09
2023-03-17T01:52:06.212Z,101261.97
2023-03-17T01:55:01.996Z,101257.63
2023-03-17T01:57:54.365Z,101267.63
2023-03-17T02:00:38.167Z,101248.72
2023-03-17T02:03:24.133Z,101246.00
2023-03-17T02:06:09.246Z,101243.59
2023-03-17T02:08:53.797Z,101240.88
2023-03-17T02:11:39.010Z,101245.50
2023-03-17T02:14:22.761Z,101235.50
2023-03-17T02:17:06.654Z,101235.50
2023-03-17T02:19:50.708Z,101235.78
2023-03-17T02:22:34.234Z,101234.13
2023-03-17T02:25:19.902Z,101227.41
2023-03-17T02:28:16.307Z,101216.88
2023-03-17T02:30:59.926Z,101217.69
2023-03-17T02:33:43.657Z,101221.44
2023-03-17T02:36:27.713Z,101218.22
2023-03-17T02:39:11.394Z,101220.41
2023-03-17T02:41:54.875Z,101223.06
2023-03-17T02:44:38.981Z,101222.53
2023-03-17T02:47:22.489Z,101224.97
2023-03-17T02:50:07.562Z,101223.34
2023-03-17T02:52:51.604Z,101213.09
2023-03-17T02:55:35.284Z,101206.09
2023-03-17T02:58:18.713Z,101207.97
2023-03-17T03:01:02.500Z,101214.44
2023-03-17T03:03:46.063Z,101207.16
2023-03-17T03:06:29.797Z,101202.31
2023-03-17T03:09:13.730Z,101209.59
2023-03-17T03:11:57.307Z,101207.16
2023-03-17T03:14:41.034Z,101201.50
2023-03-17T03:17:24.490Z,101214.16
2023-03-17T03:20:11.505Z,101215.53
2023-03-17T03:22:55.173Z,101205.81
2023-03-17T03:25:39.107Z,101214.44
2023-03-17T03:28:23.197Z,101208.50
2023-03-17T03:31:08.042Z,101220.94
2023-03-17T03:33:51.634Z,101225.78
2023-03-17T03:36:35.188Z,101234.69
2023-03-17T03:39:18.660Z,101238.47
2023-03-17T03:42:02.129Z,101231.47
2023-03-17T03:44:45.604Z,101223.88
2023-03-17T03:47:29.089Z,101213.91
2023-03-17T03:50:13.674Z,101209.88
2023-03-17T03:52:57.585Z,101210.69
2023-03-17T03:55:41.812Z,101212.84
2023-03-17T03:58:25.406Z,101220.38
2023-03-17T04:01:10.169Z,101210.66
2023-03-17T04:03:53.694Z,101210.41
2023-03-17T04:06:37.153Z,101215.00
2023-03-17T04:09:20.686Z,101205.81
2023-03-17T04:12:04.481Z,101212.81
2023-03-17T04:14:47.911Z,101208.53
2023-03-17T04:17:31.801Z,101201.75
2023-03-17T04:20:17.074Z,101206.34
2023-03-17T04:23:01.167Z,101201.22
2023-03-17T04:25:45.156Z,101202.31
2023-03-17T04:28:28.609Z,101203.09
2023-03-17T04:31:12.877Z,101190.44
2023-03-17T04:33:56.736Z,101187.75
2023-03-17T04:36:40.576Z,101179.38
2023-03-17T04:39:24.198Z,101172.88
2023-03-17T04:42:08.209Z,101178.56
2023-03-17T04:44:51.617Z,101181.00
2023-03-17T04:47:35.356Z,101186.38
2023-03-17T04:50:19.039Z,101193.13
2023-03-17T04:53:02.623Z,101184.22
2023-03-17T04:55:46.509Z,101186.13
2023-03-17T04:58:31.245Z,101187.19
2023-03-17T05:01:14.809Z,101179.09
2023-03-17T05:03:58.395Z,101190.16
2023-03-17T05:06:41.928Z,101184.25
2023-03-17T05:09:28.530Z,101187.47
2023-03-17T05:12:14.000Z,101187.19
2023-03-17T05:14:57.708Z,101179.09
2023-03-17T05:17:41.241Z,101180.19
2023-03-17T05:20:24.851Z,101170.47
2023-03-17T05:23:08.807Z,101151.03
2023-03-17T05:25:53.135Z,101142.94
2023-03-17T05:28:36.717Z,101156.19
2023-03-17T05:31:20.353Z,101152.94
2023-03-17T05:34:04.292Z,101165.06
2023-03-17T05:36:47.950Z,101166.97
2023-03-17T05:39:31.549Z,101162.66
2023-03-17T05:42:15.710Z,101168.59
2023-03-17T05:44:59.287Z,101168.28
2023-03-17T05:47:43.752Z,101156.44
2023-03-17T05:50:27.859Z,101156.44
2023-03-17T05:53:11.460Z,101171.00
2023-03-17T05:55:54.917Z,101166.13
2023-03-17T05:58:38.571Z,101183.41
2023-03-17T06:01:22.334Z,101190.69
2023-03-17T06:04:05.844Z,101177.47
2023-03-17T06:06:49.292Z,101183.69
2023-03-17T06:09:33.606Z,101187.16
2023-03-17T06:12:17.113Z,101180.13
2023-03-17T06:15:00.664Z,101175.84
2023-03-17T06:17:44.580Z,101169.59
2023-03-17T06:20:28.155Z,101156.38
2023-03-17T06:23:11.750Z,101163.94
2023-03-17T06:25:55.257Z,101160.16
2023-03-17T06:28:41.361Z,101170.63
2023-03-17T06:31:25.033Z,101176.59
2023-03-17T06:34:08.538Z,101177.09
2023-03-17T06:36:52.147Z,101186.03
2023-03-17T06:39:36.083Z,101182.75
2023-03-17T06:42:19.844Z,101172.53
2023-03-17T06:45:04.086Z,101173.03
2023-03-17T06:47:47.564Z,101176.25
2023-03-17T06:50:31.316Z,101170.28
2023-03-17T06:53:15.045Z,101154.59
2023-03-17T06:55:58.552Z,101152.25
2023-03-17T06:58:42.143Z,101164.34
2023-03-17T07:01:29.104Z,101159.50
2023-03-17T07:04:13.095Z,101155.72
2023-03-17T07:06:57.825Z,101159.72
2023-03-17T07:09:41.936Z,101148.56
2023-03-17T07:12:26.033Z,101158.78
2023-03-17T07:15:12.477Z,101151.91
2023-03-17T07:17:56.148Z,101141.97
2023-03-17T07:20:40.550Z,101143.41
2023-03-17T07:23:24.446Z,101134.44
2023-03-17T07:26:07.976Z,101121.75
2023-03-17T07:28:52.095Z,101123.66
2023-03-17T07:31:38.731Z,101111.72
2023-03-17T07:34:22.273Z,101101.38
2023-03-17T07:37:07.043Z,101079.13
2023-03-17T07:39:51.195Z,101099.53
2023-03-17T07:42:35.082Z,101113.84
2023-03-17T07:45:18.655Z,101088.66
2023-03-17T07:48:05.686Z,101064.22
2023-03-17T07:50:52.328Z,101089.81
2023-03-17T07:53:38.502Z,101105.16
2023-03-17T08:08:26.433Z,101108.91
2023-03-17T08:11:10.001Z,101107.00
2023-03-17T08:13:53.457Z,101115.94
2023-03-17T08:16:37.055Z,101107.50
2023-03-17T08:19:22.114Z,101110.00
2023-03-17T08:22:05.654Z,101112.56
2023-03-17T08:24:49.164Z,101103.59
2023-03-17T08:27:33.988Z,101100.19
2023-03-17T08:33:59.709Z,101090.91
2023-03-17T08:36:43.389Z,101089.69
2023-03-17T08:39:26.986Z,101084.16
2023-03-17T08:42:10.893Z,101095.88
2023-03-17T08:44:56.902Z,101110.44
2023-03-17T08:47:40.424Z,101113.28
2023-03-17T08:50:24.596Z,101101.91
2023-03-17T08:53:08.510Z,101089.25
2023-03-17T08:55:56.881Z,101080.94
2023-03-17T08:58:42.616Z,101068.97
2023-03-17T09:01:27.472Z,101066.22
2023-03-17T09:04:11.140Z,101058.75
2023-03-17T09:07:03.423Z,101053.94
2023-03-17T09:09:47.719Z,101060.91
2023-03-17T09:12:33.145Z,101051.03
2023-03-17T09:15:17.840Z,101048.63
2023-03-17T09:36:12.225Z,101034.41
2023-03-17T09:38:55.944Z,101033.34
2023-03-17T09:42:01.830Z,101031.00
2023-03-17T09:45:20.331Z,101019.97
2023-03-17T09:48:36.369Z,101023.22
2023-03-17T09:51:20.200Z,101021.09
2023-03-17T09:54:11.480Z,101023.16
2023-03-17T09:57:21.194Z,101021.81
2023-03-17T10:00:16.716Z,101024.50
2023-03-17T10:03:01.580Z,101020.72
2023-03-17T10:05:45.411Z,101023.53
2023-03-17T10:08:51.303Z,101019.94
2023-03-17T10:11:47.901Z,101016.50
2023-03-17T10:14:43.186Z,101019.63
2023-03-17T10:17:35.760Z,101007.59
2023-03-17T10:21:04.413Z,101013.47
2023-03-17T10:23:48.457Z,101013.47
2023-03-17T10:26:47.023Z,101022.44
2023-03-17T10:29:32.526Z,101012.31
2023-03-17T10:32:16.390Z,101016.31
2023-03-17T10:35:01.429Z,101010.53
2023-03-17T10:37:47.714Z,101012.78
2023-03-17T10:40:32.219Z,101008.72
2023-03-17T10:43:22.113Z,101002.09
2023-03-17T10:46:26.196Z,101003.22
2023-03-17T10:49:18.111Z,100999.47
2023-03-17T10:52:19.394Z,100990.00
2023-03-17T10:55:07.416Z,100985.06
2023-03-17T10:58:13.755Z,100980.94
2023-03-17T11:01:07.792Z,100972.22
2023-03-17T11:03:51.589Z,100972.72
2023-03-17T11:06:43.863Z,100967.94
2023-03-17T11:09:36.237Z,100963.78
2023-03-17T11:12:30.170Z,100962.00
2023-03-17T11:15:17.895Z,100958.53
2023-03-17T11:18:17.006Z,100956.22
2023-03-17T11:21:07.476Z,100960.78
2023-03-17T11:24:02.257Z,100947.09
2023-03-17T11:26:57.494Z,100951.88
2023-03-17T11:30:14.235Z,100947.78
2023-03-17T11:33:12.480Z,100947.81
2023-03-17T11:36:13.241Z,100952.50
2023-03-17T11:39:25.549Z,100950.09
2023-03-17T11:47:19.440Z,100955.16
2023-03-17T11:50:26.626Z,100949.56
2023-03-17T11:53:28.361Z,100941.66
2023-03-17T12:00:38.669Z,100930.44
2023-03-17T12:03:52.409Z,100931.06
2023-03-17T12:06:50.678Z,100921.25
2023-03-17T12:10:22.756Z,100924.56
2023-03-17T12:13:40.231Z,100916.44
2023-03-17T12:16:43.885Z,100916.63
2023-03-17T12:19:44.835Z,100925.41
2023-03-17T12:22:42.879Z,100916.13
2023-03-17T12:25:36.865Z,100907.84
2023-03-17T12:28:30.750Z,100907.38
2023-03-17T12:31:38.347Z,100908.41
2023-03-17T12:34:33.655Z,100914.16
2023-03-17T12:37:19.602Z,100911.75
2023-03-17T12:40:26.181Z,100908.91
2023-03-17T12:43:33.760Z,100907.78
2023-03-17T12:51:06.401Z,100884.44
2023-03-17T12:53:51.949Z,100886.81
2023-03-17T12:56:39.709Z,100872.78
2023-03-17T12:59:26.137Z,100868.50
2023-03-17T13:02:28.052Z,100871.81
2023-03-17T13:05:18.707Z,100870.47
2023-03-17T13:08:10.901Z,100856.84
2023-03-17T13:11:36.071Z,100872.00
2023-03-17T13:14:40.116Z,100865.47
2023-03-17T13:17:25.559Z,100866.16
2023-03-17T13:24:18.093Z,100859.50
2023-03-17T13:27:04.610Z,100858.16
2023-03-17T13:29:48.734Z,100860.47
2023-03-17T13:32:36.105Z,100850.66
2023-03-17T13:35:23.186Z,100851.19
2023-03-17T13:38:52.477Z,100850.81
2023-03-17T13:46:25.313Z,100845.16
2023-03-17T14:02:20.941Z,100852.97
2023-03-17T14:10:05.090Z,100846.56
2023-03-17T14:13:36.856Z,100850.75
2023-03-17T14:16:28.111Z,100844.00
2023-03-17T14:20:06.412Z,100848.59
2023-03-17T14:23:01.701Z,100838.41
2023-03-17T14:25:45.493Z,100823.28
2023-03-17T14:32:27.060Z,100811.69
2023-03-17T14:35:13.923Z,100814.31
2023-03-17T14:37:57.713Z,100815.00
2023-03-17T14:40:41.223Z,100811.22
2023-03-17T14:43:25.434Z,100797.84
2023-03-17T14:46:38.581Z,100796.97
2023-03-17T14:49:23.441Z,100783.16
2023-03-17T14:52:07.271Z,100792.25
2023-03-17T14:54:54.908Z,100778.53
2023-03-17T14:57:38.766Z,100773.03
2023-03-17T15:00:36.411Z,100773.03
2023-03-17T15:03:25.672Z,100774.94
2023-03-17T15:06:30.989Z,100776.19
2023-03-17T15:09:36.333Z,100783.53
2023-03-17T15:16:32.177Z,100771.50
2023-03-17T15:19:28.683Z,100772.94
2023-03-17T15:22:21.841Z,100773.81
2023-03-17T15:25:27.073Z,100762.91
2023-03-17T15:36:47.601Z,100749.47
2023-03-17T15:39:31.408Z,100750.28
2023-03-17T15:42:19.468Z,100739.53
2023-03-17T15:45:05.465Z,100741.16
2023-03-17T15:47:49.381Z,100739.81
2023-03-17T16:03:53.123Z,100728.56
2023-03-17T16:06:36.640Z,100732.91
2023-03-17T16:09:20.572Z,100739.41
2023-03-17T16:12:05.468Z,100742.91
2023-03-17T16:14:49.162Z,100739.84
2023-03-17T16:17:34.199Z,100742.91
2023-03-17T16:20:45.283Z,100739.47
2023-03-17T16:23:34.854Z,100749.69
2023-03-17T16:29:44.306Z,100744.78
2023-03-17T16:32:28.117Z,100744.78
2023-03-17T16:35:19.352Z,100747.47
2023-03-17T16:38:02.926Z,100736.94
2023-03-17T16:40:51.913Z,100744.72
2023-03-17T16:48:03.631Z,100740.97
2023-03-17T16:50:49.699Z,100746.78
2023-03-17T17:05:56.256Z,100744.28
2023-03-17T17:08:40.352Z,100739.59
2023-03-17T17:11:23.806Z,100740.84
2023-03-17T17:14:07.461Z,100741.50
2023-03-17T17:16:52.238Z,100735.56
2023-03-17T17:19:36.748Z,100735.06
2023-03-17T17:22:22.310Z,100734.63
2023-03-17T17:25:10.199Z,100738.00
2023-03-17T17:27:54.911Z,100730.25
2023-03-17T17:30:38.678Z,100730.03
2023-03-17T17:33:22.331Z,100719.13
2023-03-17T17:36:13.759Z,100726.28
2023-03-17T17:38:57.414Z,100735.09
2023-03-17T17:41:40.862Z,100738.28
2023-03-17T17:44:24.324Z,100737.78
2023-03-17T17:47:08.098Z,100736.22
2023-03-17T17:49:51.622Z,100732.31
2023-03-17T17:52:35.183Z,100736.03
2023-03-17T17:55:19.503Z,100732.38
2023-03-17T17:58:03.338Z,100734.47
2023-03-17T18:00:47.006Z,100728.25
2023-03-17T18:03:32.136Z,100735.09
2023-03-17T18:06:17.218Z,100728.84
2023-03-17T18:09:00.862Z,100734.66
2023-03-17T18:11:44.367Z,100735.91
2023-03-17T18:14:27.820Z,100736.09
2023-03-17T18:17:11.314Z,100733.44
2023-03-17T18:28:53.140Z,100743.78
2023-03-17T18:31:46.715Z,100741.34
2023-03-17T18:34:45.938Z,100732.84
2023-03-17T18:37:32.502Z,100736.03
2023-03-17T18:40:32.131Z,100736.91
2023-03-17T18:43:15.897Z,100730.22
2023-03-17T18:45:59.525Z,100729.53
2023-03-17T18:48:43.150Z,100730.19
2023-03-17T18:51:26.644Z,100726.59
2023-03-17T18:54:11.340Z,100726.44
2023-03-17T18:56:56.473Z,100715.91
2023-03-17T18:59:39.981Z,100721.06
2023-03-17T19:02:23.859Z,100711.09
2023-03-17T19:05:07.941Z,100703.38
2023-03-17T19:07:51.549Z,100710.78
2023-03-17T19:10:34.983Z,100708.75
2023-03-17T19:13:21.188Z,100711.72
2023-03-17T19:16:08.951Z,100721.41
2023-03-17T19:19:02.279Z,100701.69
2023-03-17T19:21:50.970Z,100715.97
2023-03-17T19:24:37.627Z,100706.69
2023-03-17T19:31:22.132Z,100687.91
2023-03-17T19:34:06.680Z,100691.19
2023-03-17T19:36:52.943Z,100685.94
2023-03-17T19:39:40.221Z,100690.88
2023-03-17T19:42:28.472Z,100689.56
2023-03-17T19:45:12.163Z,100684.31
2023-03-17T19:47:56.140Z,100686.13
2023-03-17T19:50:40.755Z,100689.66
2023-03-17T19:53:24.191Z,100690.09
2023-03-17T19:56:21.229Z,100696.28
2023-03-17T20:03:14.341Z,100698.25
2023-03-17T20:09:39.474Z,100699.13
2023-03-17T20:12:23.077Z,100712.13
2023-03-17T20:15:08.594Z,100709.38
2023-03-17T20:17:54.675Z,100716.97
2023-03-17T20:20:47.537Z,100719.31
2023-03-17T20:27:23.474Z,100717.41
2023-03-17T20:33:47.002Z,100723.72
2023-03-17T20:36:31.097Z,100736.81
2023-03-17T20:39:19.845Z,100727.09
2023-03-17T20:42:08.568Z,100728.91
2023-03-17T20:45:44.876Z,100719.78
2023-03-17T20:48:30.163Z,100716.47
2023-03-17T20:51:58.225Z,100715.34
2023-03-17T20:58:30.685Z,100715.34
2023-03-17T21:01:21.745Z,100711.19
2023-03-17T21:08:36.654Z,100703.31
2023-03-17T21:11:26.619Z,100716.19
2023-03-17T21:14:13.646Z,100706.72
2023-03-17T21:16:57.872Z,100705.03
2023-03-17T21:20:02.152Z,100716.25
2023-03-17T21:22:46.081Z,100705.13
2023-03-17T21:26:09.941Z,100703.59
2023-03-17T21:28:56.926Z,100705.19
2023-03-17T21:31:42.486Z,100703.91
2023-03-17T21:34:28.392Z,100704.38
2023-03-17T21:37:30.129Z,100699.28
2023-03-17T21:40:17.144Z,100704.38
2023-03-17T21:43:37.561Z,100701.69
2023-03-17T21:46:25.448Z,100704.75
2023-03-17T21:49:09.337Z,100701.50
2023-03-17T21:51:52.847Z,100701.06
2023-03-17T21:56:05.782Z,100706.81
2023-03-17T21:58:51.798Z,100707.31
2023-03-17T22:01:36.509Z,100702.34
2023-03-17T22:04:20.175Z,100708.91
2023-03-17T22:07:04.708Z,100706.22
2023-03-17T22:09:48.268Z,100700.25
2023-03-17T22:12:31.739Z,100688.91
2023-03-17T22:15:15.771Z,100687.31
2023-03-17T22:17:59.229Z,100686.50
2023-03-17T22:20:44.867Z,100687.94
2023-03-17T22:23:29.243Z,100678.50
2023-03-17T22:26:16.513Z,100694.34
2023-03-17T22:29:00.223Z,100691.63
2023-03-17T22:31:43.759Z,100693.69
2023-03-17T22:34:27.844Z,100681.72
2023-03-17T22:37:11.294Z,100687.78
2023-03-17T22:39:54.791Z,100687.28
2023-03-17T22:42:38.742Z,100682.31
2023-03-17T22:45:22.432Z,100681.22
2023-03-17T22:48:10.901Z,100683.44
2023-03-17T22:51:20.585Z,100682.31
2023-03-17T22:54:04.586Z,100680.69
2023-03-17T22:56:48.686Z,100685.69
2023-03-17T22:59:32.116Z,100678.31
2023-03-17T23:02:18.105Z,100678.63
2023-03-17T23:05:01.962Z,100681.16
2023-03-17T23:07:50.760Z,100683.28
2023-03-17T23:10:34.959Z,100681.66
2023-03-17T23:14:40.386Z,100676.69
2023-03-17T23:17:23.815Z,100679.44
2023-03-17T23:20:08.218Z,100677.34
2023-03-17T23:22:52.716Z,100678.63
2023-03-17T23:25:38.139Z,100673.34
2023-03-17T23:28:21.878Z,100674.63
2023-03-17T23:31:05.374Z,100669.50
2023-03-17T23:37:49.208Z,100658.44
2023-03-17T23:40:36.105Z,100661.06
2023-03-17T23:43:24.296Z,100659.09
2023-03-17T23:46:08.460Z,100657.34
2023-03-17T23:48:52.431Z,100666.81
2023-03-17T23:52:30.303Z,100659.25
2023-03-17T23:55:37.597Z,100659.06
2023-03-17T23:58:27.719Z,100667.44
